createdAt,value
2018-04-15T11:58:05.818Z,15.83
2018-04-15T12:00:33.615Z,15.94
2018-04-15T12:03:01.494Z,16.14
2018-04-15T12:05:29.280Z,16.11
2018-04-15T12:07:57.118Z,16.36
2018-04-15T12:10:30.610Z,16.43
2018-04-15T12:12:58.395Z,16.59
2018-04-15T12:15:26.123Z,16.85
2018-04-15T12:17:54.887Z,17.04
2018-04-15T12:20:22.660Z,16.81
2018-04-15T12:22:50.414Z,16.33
2018-04-15T12:25:18.188Z,16.00
2018-04-15T12:27:45.980Z,16.04
2018-04-15T12:30:13.708Z,15.87
2018-04-15T12:32:41.492Z,15.91
2018-04-15T12:35:09.276Z,16.01
2018-04-15T12:37:37.180Z,16.16
2018-04-15T12:40:04.939Z,16.33
2018-04-15T12:42:32.728Z,16.49
2018-04-15T12:45:11.932Z,16.22
2018-04-15T12:48:00.197Z,16.29
2018-04-15T12:50:28.808Z,16.75
2018-04-15T12:52:56.666Z,16.84
2018-04-15T12:55:24.403Z,17.17
2018-04-15T12:57:52.248Z,16.88
2018-04-15T13:00:19.944Z,16.98
2018-04-15T13:02:47.813Z,17.10
2018-04-15T13:05:15.636Z,17.29
2018-04-15T13:07:43.413Z,17.46
2018-04-15T13:10:11.134Z,17.36
2018-04-15T13:12:38.928Z,17.04
2018-04-15T13:15:06.760Z,16.44
2018-04-15T13:17:34.560Z,16.28
2018-04-15T13:20:02.451Z,16.48
2018-04-15T13:22:30.306Z,16.71
2018-04-15T13:24:58.196Z,16.72
2018-04-15T13:27:26.012Z,16.55
2018-04-15T13:29:53.812Z,16.57
2018-04-15T13:32:22.736Z,16.38
2018-04-15T13:34:50.672Z,16.45
2018-04-15T13:37:18.640Z,16.48
2018-04-15T13:39:46.580Z,16.57
2018-04-15T13:42:14.424Z,16.67
2018-04-15T13:44:42.315Z,16.78
2018-04-15T13:47:10.265Z,16.83
2018-04-15T13:49:38.084Z,16.86
2018-04-15T13:52:06.054Z,16.85
2018-04-15T13:54:33.888Z,17.01
2018-04-15T13:57:01.789Z,17.26
2018-04-15T13:59:29.692Z,17.43
2018-04-15T14:01:57.549Z,17.42
2018-04-15T14:04:25.524Z,17.45
2018-04-15T14:06:53.332Z,17.35
2018-04-15T14:09:21.240Z,17.16
2018-04-15T14:11:49.032Z,16.74
2018-04-15T14:14:16.927Z,16.26
2018-04-15T14:16:44.768Z,16.58
2018-04-15T14:19:12.680Z,16.98
2018-04-15T14:21:40.603Z,17.12
2018-04-15T14:24:08.566Z,17.18
2018-04-15T14:26:36.357Z,16.97
2018-04-15T14:29:04.256Z,16.58
2018-04-15T14:31:31.993Z,16.47
2018-04-15T14:33:59.955Z,16.45
2018-04-15T14:36:27.744Z,16.36
2018-04-15T14:38:55.696Z,16.50
2018-04-15T14:41:23.524Z,16.58
2018-04-15T14:43:51.319Z,16.51
2018-04-15T14:46:19.004Z,16.35
2018-04-15T14:48:46.800Z,16.23
2018-04-15T14:51:14.663Z,16.29
2018-04-15T14:53:42.521Z,16.42
2018-04-15T14:56:10.288Z,16.55
2018-04-15T14:58:38.144Z,16.64
2018-04-15T15:01:05.942Z,16.74
2018-04-15T15:03:33.858Z,16.55
2018-04-15T15:06:01.618Z,16.55
2018-04-15T15:08:29.558Z,16.93
2018-04-15T15:10:57.377Z,17.23
2018-04-15T15:13:25.303Z,17.39
2018-04-15T15:15:53.235Z,17.49
2018-04-15T15:18:21.150Z,17.52
2018-04-15T15:20:48.946Z,17.52
2018-04-15T15:23:16.850Z,17.53
2018-04-15T15:25:44.605Z,17.66
2018-04-15T15:28:12.558Z,17.80
2018-04-15T15:30:40.489Z,17.84
2018-04-15T15:33:08.382Z,17.89
2018-04-15T15:35:36.305Z,18.02
2018-04-15T15:38:04.218Z,17.98
2018-04-15T15:40:32.015Z,17.84
2018-04-15T15:42:59.904Z,17.66
2018-04-15T15:45:27.783Z,17.65
2018-04-15T15:47:55.710Z,17.55
2018-04-15T15:50:23.549Z,17.72
2018-04-15T15:52:51.467Z,17.83
2018-04-15T15:55:19.195Z,17.81
2018-04-15T15:57:46.996Z,17.46
2018-04-15T16:00:14.992Z,17.32
2018-04-15T16:02:42.732Z,17.23
2018-04-15T16:05:10.629Z,17.27
2018-04-15T16:07:38.485Z,17.19
2018-04-15T16:10:06.473Z,17.00
2018-04-15T16:12:34.316Z,16.98
2018-04-15T16:15:02.150Z,16.91
2018-04-15T16:17:29.988Z,16.82
2018-04-15T16:19:57.950Z,16.68
2018-04-15T16:22:25.802Z,16.50
2018-04-15T16:24:53.729Z,16.51
2018-04-15T16:27:21.549Z,16.49
2018-04-15T16:29:49.509Z,16.33
2018-04-15T16:32:17.271Z,16.44
2018-04-15T16:34:45.211Z,16.46
2018-04-15T16:37:12.964Z,16.44
2018-04-15T16:39:40.815Z,16.41
2018-04-15T16:42:08.672Z,16.44
2018-04-15T16:44:36.489Z,16.52
2018-04-15T16:47:04.316Z,16.49
2018-04-15T16:49:32.178Z,16.49
2018-04-15T16:51:59.961Z,16.50
2018-04-15T16:54:27.757Z,16.49
2018-04-15T16:56:55.494Z,16.51
2018-04-15T16:59:23.290Z,16.47
2018-04-15T17:01:51.061Z,16.34
2018-04-15T17:04:18.851Z,16.17
2018-04-15T17:06:46.655Z,15.99
2018-04-15T17:09:14.554Z,15.81
2018-04-15T17:11:42.389Z,15.65
2018-04-15T17:14:10.345Z,15.53
2018-04-15T17:16:38.355Z,15.43
2018-04-15T17:19:06.312Z,15.35
2018-04-15T17:21:34.175Z,15.29
2018-04-15T17:24:02.097Z,15.27
2018-04-15T17:26:30.021Z,15.25
2018-04-15T17:28:57.954Z,15.26
2018-04-15T17:31:25.706Z,15.30
2018-04-15T17:33:53.558Z,15.25
2018-04-15T17:36:21.444Z,15.19
2018-04-15T17:38:49.418Z,15.17
2018-04-15T17:41:17.204Z,15.10
2018-04-15T17:43:58.856Z,15.01
2018-04-15T17:46:38.155Z,14.85
2018-04-15T17:49:06.781Z,14.84
2018-04-15T17:51:34.586Z,14.79
2018-04-15T17:54:02.478Z,14.75
2018-04-15T17:56:30.278Z,14.67
2018-04-15T17:58:58.108Z,14.60
2018-04-15T18:01:25.876Z,14.51
2018-04-15T18:03:53.732Z,14.41
2018-04-15T18:06:21.501Z,14.27
2018-04-15T18:08:49.333Z,14.14
2018-04-15T18:11:17.057Z,14.05
2018-04-15T18:13:45.011Z,13.95
2018-04-15T18:16:12.833Z,13.87
2018-04-15T18:18:40.807Z,13.77
2018-04-15T18:21:08.689Z,13.66
2018-04-15T18:23:36.597Z,13.55
2018-04-15T18:26:04.406Z,13.40
2018-04-15T18:28:32.264Z,13.28
2018-04-15T18:31:00.140Z,13.10
2018-04-15T18:33:28.090Z,12.97
2018-04-15T18:35:56.190Z,12.82
2018-04-15T18:38:24.038Z,12.67
2018-04-15T18:40:51.960Z,12.59
2018-04-15T18:43:19.873Z,12.50
2018-04-15T18:45:47.917Z,12.39
2018-04-15T18:48:15.762Z,12.35
2018-04-15T18:50:43.774Z,12.30
2018-04-15T18:53:11.646Z,12.24
2018-04-15T18:55:39.485Z,12.12
2018-04-15T18:58:07.357Z,12.05
2018-04-15T19:00:35.182Z,11.95
2018-04-15T19:03:02.964Z,11.98
2018-04-15T19:08:03.358Z,12.17
2018-04-15T19:10:31.283Z,12.17
2018-04-15T19:12:59.133Z,12.15
2018-04-15T19:15:27.085Z,12.05
2018-04-15T19:17:54.909Z,11.97
2018-04-15T19:20:22.858Z,11.77
2018-04-15T19:22:50.706Z,11.63
2018-04-15T19:25:18.635Z,11.62
2018-04-15T19:27:46.537Z,11.61
2018-04-15T19:30:14.451Z,11.59
2018-04-15T19:32:42.329Z,11.55
2018-04-15T19:35:10.184Z,11.44
2018-04-15T19:37:37.976Z,11.37
2018-04-15T19:40:05.833Z,11.23
2018-04-15T19:42:33.678Z,11.00
2018-04-15T19:45:01.578Z,10.73
2018-04-15T19:47:29.498Z,10.69
2018-04-15T19:49:57.410Z,10.76
2018-04-15T19:52:25.184Z,10.74
2018-04-15T19:54:52.987Z,10.70
2018-04-15T19:57:20.917Z,10.66
2018-04-15T19:59:48.878Z,10.64
2018-04-15T20:02:16.658Z,10.49
2018-04-15T20:04:44.471Z,10.46
2018-04-15T20:07:12.291Z,10.43
2018-04-15T20:09:40.146Z,10.40
2018-04-15T20:12:07.916Z,10.40
2018-04-15T20:14:35.753Z,10.40
2018-04-15T20:17:03.650Z,10.40
2018-04-15T20:19:31.553Z,10.36
2018-04-15T20:21:59.541Z,10.35
2018-04-15T20:24:27.502Z,10.34
2018-04-15T20:26:55.313Z,10.40
2018-04-15T20:29:23.243Z,10.36
2018-04-15T20:31:51.211Z,10.26
2018-04-15T20:34:19.214Z,10.26
2018-04-15T20:36:47.090Z,10.26
2018-04-15T20:39:14.995Z,10.30
2018-04-15T20:41:43.038Z,10.45
2018-04-15T20:44:10.829Z,10.50
2018-04-15T20:46:38.658Z,10.55
2018-04-15T20:49:06.569Z,10.56
2018-04-15T20:51:34.476Z,10.64
2018-04-15T20:54:02.272Z,10.69
2018-04-15T20:56:30.155Z,10.70
2018-04-15T20:58:58.042Z,10.60
2018-04-15T21:01:25.903Z,10.53
2018-04-15T21:03:53.773Z,10.47
2018-04-15T21:06:21.798Z,9.96
2018-04-15T21:08:49.634Z,9.80
2018-04-15T21:11:17.558Z,9.73
2018-04-15T21:13:45.430Z,9.74
2018-04-15T21:16:13.382Z,9.82
2018-04-15T21:18:41.329Z,9.84
2018-04-15T21:21:09.293Z,9.69
2018-04-15T21:23:37.203Z,9.59
2018-04-15T21:26:05.142Z,9.47
2018-04-15T21:28:32.979Z,9.43
2018-04-15T21:31:00.897Z,9.38
2018-04-15T21:33:28.742Z,9.38
2018-04-15T21:35:56.702Z,9.30
2018-04-15T21:38:24.670Z,9.05
2018-04-15T21:40:52.631Z,9.10
2018-04-15T21:43:20.512Z,9.11
2018-04-15T21:45:48.445Z,9.24
2018-04-15T21:48:16.280Z,9.33
2018-04-15T21:50:44.174Z,9.36
2018-04-15T21:53:12.177Z,9.43
2018-04-15T21:55:40.054Z,9.47
2018-04-15T21:58:07.961Z,9.52
2018-04-15T22:00:35.837Z,9.44
2018-04-15T22:03:03.766Z,9.22
2018-04-15T22:05:31.717Z,9.29
2018-04-15T22:07:59.623Z,9.44
2018-04-15T22:10:27.445Z,9.62
2018-04-15T22:13:05.162Z,9.57
2018-04-15T22:15:33.045Z,9.53
2018-04-15T22:18:00.929Z,9.34
2018-04-15T22:20:28.805Z,9.10
2018-04-15T22:22:56.708Z,8.92
2018-04-15T22:25:24.677Z,8.73
2018-04-15T22:27:52.580Z,8.80
2018-04-15T22:30:20.443Z,8.88
2018-04-15T22:32:48.265Z,8.90
2018-04-15T22:35:16.233Z,8.93
2018-04-15T22:37:44.163Z,9.00
2018-04-15T22:40:11.946Z,9.12
2018-04-15T22:42:39.795Z,9.22
2018-04-15T22:45:07.652Z,9.30
2018-04-15T22:47:35.666Z,9.34
2018-04-15T22:50:09.053Z,9.31
2018-04-15T22:52:37.013Z,9.23
2018-04-15T22:55:04.821Z,8.88
2018-04-15T22:57:32.689Z,8.67
2018-04-15T23:00:00.438Z,8.62
2018-04-15T23:02:28.298Z,8.67
2018-04-15T23:04:56.066Z,8.75
2018-04-15T23:07:23.954Z,8.82
2018-04-15T23:09:51.931Z,8.91
2018-04-15T23:12:19.775Z,8.77
2018-04-15T23:14:47.619Z,8.64
2018-04-15T23:17:15.558Z,8.57
2018-04-15T23:19:43.393Z,8.56
2018-04-15T23:22:11.307Z,8.58
2018-04-15T23:24:39.112Z,8.61
2018-04-15T23:27:07.010Z,8.62
2018-04-15T23:29:34.846Z,8.66
2018-04-15T23:32:02.769Z,8.68
2018-04-15T23:34:30.594Z,8.64
2018-04-15T23:36:58.542Z,8.51
2018-04-15T23:39:26.387Z,8.35
2018-04-15T23:41:54.299Z,8.25
2018-04-15T23:44:22.191Z,8.31
2018-04-15T23:46:50.090Z,8.37
2018-04-15T23:49:17.949Z,8.42
2018-04-15T23:51:45.853Z,8.42
2018-04-15T23:54:13.720Z,8.40
2018-04-15T23:56:41.710Z,8.37
2018-04-15T23:59:09.626Z,8.50
